createdAt,value
2024-05-09T00:01:02.622Z,8.20
2024-05-09T00:03:50.055Z,7.10
2024-05-09T00:06:24.851Z,7.60
2024-05-09T00:08:56.982Z,8.50
2024-05-09T00:11:31.463Z,8.30
2024-05-09T00:14:06.603Z,7.80
2024-05-09T00:16:42.008Z,8.60
2024-05-09T00:19:14.952Z,6.90
2024-05-09T00:21:48.706Z,7.80
2024-05-09T00:24:24.610Z,10.40
2024-05-09T00:26:56.502Z,9.50
2024-05-09T00:29:29.931Z,9.60
2024-05-09T00:32:03.194Z,8.70
2024-05-09T00:34:36.344Z,7.60
2024-05-09T00:37:09.263Z,8.20
2024-05-09T00:39:43.237Z,9.30
2024-05-09T00:42:15.114Z,8.70
2024-05-09T00:44:48.552Z,8.20
2024-05-09T00:47:22.368Z,9.70
2024-05-09T00:49:56.929Z,8.80
2024-05-09T00:52:31.398Z,8.50
2024-05-09T00:55:04.018Z,9.90
2024-05-09T00:57:37.414Z,8.80
2024-05-09T01:00:22.653Z,8.20
2024-05-09T01:03:06.095Z,8.10
2024-05-09T01:05:42.533Z,8.30
2024-05-09T01:08:16.367Z,9.80
2024-05-09T01:10:49.806Z,9.00
2024-05-09T01:13:23.349Z,8.10
2024-05-09T01:15:58.172Z,8.00
2024-05-09T01:18:31.518Z,10.10
2024-05-09T01:21:09.683Z,8.60
2024-05-09T01:23:42.675Z,9.80
2024-05-09T01:26:16.124Z,8.40
2024-05-09T01:28:49.693Z,8.90
2024-05-09T01:31:23.752Z,9.50
2024-05-09T01:33:56.707Z,10.20
2024-05-09T01:36:28.727Z,8.60
2024-05-09T01:39:01.537Z,9.20
2024-05-09T01:41:34.253Z,9.70
2024-05-09T01:44:07.453Z,8.00
2024-05-09T01:46:40.678Z,8.30
2024-05-09T01:49:14.295Z,8.10
2024-05-09T01:51:47.335Z,7.90
2024-05-09T01:54:20.754Z,7.70
2024-05-09T01:56:52.665Z,8.00
2024-05-09T01:59:28.327Z,8.40
2024-05-09T02:02:01.735Z,7.80
2024-05-09T02:04:36.934Z,8.80
2024-05-09T02:07:13.120Z,9.40
2024-05-09T02:09:45.150Z,9.40
2024-05-09T02:12:19.801Z,9.90
2024-05-09T02:14:55.144Z,11.30
2024-05-09T02:17:27.790Z,9.50
2024-05-09T02:20:00.970Z,10.00
2024-05-09T02:22:39.117Z,8.50
2024-05-09T02:25:13.701Z,13.00
2024-05-09T02:27:46.491Z,9.40
2024-05-09T02:30:30.111Z,10.10
2024-05-09T02:33:14.426Z,9.60
2024-05-09T02:35:50.244Z,9.30
2024-05-09T02:38:29.273Z,9.20
2024-05-09T02:41:03.292Z,10.50
2024-05-09T02:43:35.720Z,9.70
2024-05-09T02:46:12.506Z,9.50
2024-05-09T02:48:44.988Z,10.30
2024-05-09T02:51:18.495Z,9.80
2024-05-09T02:53:52.538Z,10.10
2024-05-09T02:56:25.476Z,9.30
2024-05-09T02:59:00.299Z,10.00
2024-05-09T03:01:33.514Z,9.30
2024-05-09T03:04:08.046Z,10.60
2024-05-09T03:06:44.367Z,11.50
2024-05-09T03:09:17.967Z,12.10
2024-05-09T03:11:51.761Z,11.20
2024-05-09T03:14:25.786Z,9.60
2024-05-09T03:17:00.147Z,12.60
2024-05-09T03:19:33.856Z,11.20
2024-05-09T03:22:07.093Z,11.30
2024-05-09T03:24:40.692Z,13.80
2024-05-09T03:27:22.399Z,11.80
2024-05-09T03:29:56.043Z,15.30
2024-05-09T03:32:30.296Z,15.50
2024-05-09T03:35:04.608Z,10.60
2024-05-09T03:37:37.421Z,12.30
2024-05-09T03:40:20.890Z,12.00
2024-05-09T03:42:56.527Z,10.90
2024-05-09T03:45:29.956Z,12.10
2024-05-09T03:48:06.953Z,13.60
2024-05-09T03:50:41.333Z,14.20
2024-05-09T03:53:17.582Z,13.60
2024-05-09T03:55:54.172Z,10.00
2024-05-09T03:58:30.014Z,10.40
2024-05-09T04:01:03.343Z,10.30
2024-05-09T04:03:40.373Z,9.70
2024-05-09T04:06:20.991Z,10.90
2024-05-09T04:08:53.689Z,11.00
2024-05-09T04:11:26.425Z,12.40
2024-05-09T04:14:00.555Z,11.50
2024-05-09T04:16:33.864Z,10.50
2024-05-09T04:19:11.287Z,8.80
2024-05-09T04:21:44.505Z,10.20
2024-05-09T04:24:17.025Z,11.20
2024-05-09T04:26:49.783Z,11.10
2024-05-09T04:29:23.670Z,12.30
2024-05-09T04:32:01.670Z,10.50
2024-05-09T04:34:38.918Z,12.30
2024-05-09T04:37:12.553Z,11.30
2024-05-09T04:39:47.057Z,11.20
2024-05-09T04:42:20.991Z,11.90
2024-05-09T04:44:58.277Z,12.00
2024-05-09T04:47:33.315Z,12.20
2024-05-09T04:50:11.862Z,10.50
2024-05-09T04:52:47.772Z,11.70
2024-05-09T04:55:21.245Z,13.60
2024-05-09T04:57:53.795Z,12.30
2024-05-09T05:00:35.245Z,12.50
2024-05-09T05:03:13.858Z,12.30
2024-05-09T05:05:51.795Z,15.00
2024-05-09T05:08:26.724Z,15.90
2024-05-09T05:10:59.568Z,13.00
2024-05-09T05:13:35.605Z,14.70
2024-05-09T05:16:11.690Z,14.20
2024-05-09T05:18:44.903Z,11.70
2024-05-09T05:21:19.379Z,11.40
2024-05-09T05:23:55.108Z,15.90
2024-05-09T05:26:28.788Z,13.60
2024-05-09T05:29:01.397Z,12.90
2024-05-09T05:31:36.828Z,13.30
2024-05-09T05:34:08.581Z,13.10
2024-05-09T05:36:41.470Z,12.20
2024-05-09T05:39:15.016Z,10.50
2024-05-09T05:41:47.818Z,12.10
2024-05-09T05:44:19.962Z,12.90
2024-05-09T05:46:51.392Z,13.10
2024-05-09T05:49:25.941Z,10.00
2024-05-09T05:52:05.795Z,13.30
2024-05-09T05:54:41.801Z,10.90
2024-05-09T05:57:16.532Z,10.50
2024-05-09T05:59:49.775Z,9.50
2024-05-09T06:02:25.349Z,9.70
2024-05-09T06:05:00.359Z,8.40
2024-05-09T06:07:34.446Z,10.60
2024-05-09T06:10:17.239Z,11.30
2024-05-09T06:12:56.038Z,11.70
2024-05-09T06:15:28.685Z,13.60
2024-05-09T06:18:11.479Z,10.80
2024-05-09T06:20:50.193Z,10.60
2024-05-09T06:23:25.334Z,14.10
2024-05-09T06:25:59.208Z,15.90
2024-05-09T06:28:40.562Z,13.00
2024-05-09T06:31:13.052Z,13.70
2024-05-09T06:33:45.856Z,11.60
2024-05-09T06:36:19.942Z,13.30
2024-05-09T06:38:52.959Z,14.20
2024-05-09T06:41:25.803Z,11.90
2024-05-09T06:43:58.567Z,11.10
2024-05-09T06:46:33.338Z,9.90
2024-05-09T06:49:08.458Z,12.40
2024-05-09T06:51:41.838Z,13.80
2024-05-09T06:54:18.236Z,12.40
2024-05-09T06:56:52.211Z,21.80
2024-05-09T06:59:25.758Z,10.70
2024-05-09T07:02:00.686Z,10.70
2024-05-09T07:04:33.133Z,18.70
2024-05-09T07:07:09.203Z,11.00
2024-05-09T07:09:43.331Z,13.90
2024-05-09T07:12:18.514Z,12.50
2024-05-09T07:14:52.135Z,16.20
2024-05-09T07:17:26.664Z,14.70
2024-05-09T07:20:01.100Z,11.30
2024-05-09T07:22:35.372Z,12.60
2024-05-09T07:25:09.461Z,11.70
2024-05-09T07:27:41.016Z,15.70
2024-05-09T07:30:22.925Z,11.80
2024-05-09T07:33:04.570Z,13.80
2024-05-09T07:35:37.994Z,9.90
2024-05-09T07:38:15.374Z,12.60
2024-05-09T07:40:48.332Z,9.60
2024-05-09T07:43:24.945Z,9.20
2024-05-09T07:54:16.223Z,9.20
2024-05-09T07:56:52.854Z,7.50
2024-05-09T07:59:26.023Z,7.90
2024-05-09T08:02:01.901Z,5.50
2024-05-09T08:04:37.065Z,8.40
2024-05-09T08:07:10.896Z,6.40
2024-05-09T08:09:46.156Z,6.30
2024-05-09T08:12:18.034Z,7.20
2024-05-09T08:16:45.149Z,3.00
2024-05-09T08:19:18.720Z,5.00
2024-05-09T08:21:52.426Z,7.40
2024-05-09T08:24:25.556Z,7.30
2024-05-09T08:26:58.881Z,5.10
2024-05-09T08:29:30.809Z,5.50
2024-05-09T08:32:03.291Z,5.90
2024-05-09T08:34:35.663Z,7.20
2024-05-09T08:37:13.261Z,6.80
2024-05-09T08:39:52.260Z,5.70
2024-05-09T08:42:29.052Z,4.90
2024-05-09T08:45:02.630Z,8.60
2024-05-09T08:47:35.827Z,6.50
2024-05-09T08:50:28.547Z,6.90
2024-05-09T08:53:08.076Z,4.70
2024-05-09T08:55:43.877Z,6.10
2024-05-09T08:58:21.203Z,6.60
2024-05-09T09:00:54.945Z,5.10
2024-05-09T09:03:31.971Z,5.30
2024-05-09T09:06:12.207Z,7.20
2024-05-09T09:08:46.852Z,6.50
2024-05-09T09:11:20.075Z,7.50
2024-05-09T09:13:54.254Z,5.80
2024-05-09T09:16:37.726Z,7.40
2024-05-09T09:19:11.346Z,6.10
2024-05-09T09:21:44.397Z,7.90
2024-05-09T09:24:17.464Z,9.60
2024-05-09T09:26:49.994Z,7.00
2024-05-09T09:29:24.063Z,8.30
2024-05-09T09:32:03.952Z,5.30
2024-05-09T09:34:37.891Z,4.80
2024-05-09T09:37:12.798Z,5.80
2024-05-09T09:39:48.924Z,5.00
2024-05-09T09:42:23.713Z,5.60
2024-05-09T09:45:04.834Z,5.00
2024-05-09T09:47:42.841Z,4.90
2024-05-09T09:50:24.032Z,5.40
2024-05-09T09:53:07.936Z,4.90
2024-05-09T09:55:42.988Z,6.80
2024-05-09T09:58:18.131Z,5.20
2024-05-09T10:00:51.627Z,4.60
2024-05-09T10:03:29.808Z,5.70
2024-05-09T10:06:04.589Z,6.30
2024-05-09T10:08:39.004Z,7.80
2024-05-09T10:11:13.511Z,7.70
2024-05-09T10:13:53.339Z,8.00
2024-05-09T10:16:26.482Z,7.30
2024-05-09T10:18:59.690Z,12.80
2024-05-09T10:21:32.782Z,4.00
2024-05-09T10:24:08.107Z,5.50
2024-05-09T10:26:42.049Z,5.60
2024-05-09T10:29:19.820Z,4.90
2024-05-09T10:31:55.390Z,5.20
2024-05-09T10:34:37.435Z,4.60
2024-05-09T10:37:12.036Z,5.90
2024-05-09T10:39:49.255Z,5.00
2024-05-09T10:42:26.093Z,5.60
2024-05-09T10:44:58.963Z,6.30
2024-05-09T10:47:34.343Z,4.50
2024-05-09T10:50:18.288Z,5.00
2024-05-09T10:52:58.348Z,4.50
2024-05-09T10:55:32.544Z,6.00
2024-05-09T10:58:19.418Z,8.80
2024-05-09T11:00:53.272Z,5.20
2024-05-09T11:03:27.126Z,4.90
2024-05-09T11:05:59.926Z,13.50
2024-05-09T11:08:35.454Z,4.60
2024-05-09T11:11:11.380Z,6.80
2024-05-09T11:13:44.744Z,5.10
2024-05-09T11:16:22.610Z,5.70
2024-05-09T11:18:59.901Z,3.70
2024-05-09T11:21:34.833Z,4.80
2024-05-09T11:24:11.016Z,7.20
2024-05-09T11:26:44.943Z,10.70
2024-05-09T11:29:19.719Z,8.10
2024-05-09T11:31:53.743Z,6.80
2024-05-09T11:34:27.452Z,5.00
2024-05-09T11:37:00.895Z,8.50
2024-05-09T11:39:38.670Z,7.80
2024-05-09T11:42:11.753Z,6.80
2024-05-09T11:44:45.306Z,4.80
2024-05-09T11:47:21.567Z,4.10
2024-05-09T11:49:56.250Z,4.20
2024-05-09T11:52:29.358Z,7.40
2024-05-09T11:55:02.752Z,4.60
2024-05-09T11:57:37.275Z,7.60
2024-05-09T12:00:18.275Z,5.20
2024-05-09T12:03:01.108Z,8.90
2024-05-09T12:05:36.301Z,4.20
2024-05-09T12:08:11.944Z,6.90
2024-05-09T12:10:44.626Z,5.10
2024-05-09T12:13:16.965Z,5.50
2024-05-09T12:15:49.537Z,4.90
2024-05-09T12:18:23.541Z,5.00
2024-05-09T12:20:56.553Z,4.20
2024-05-09T12:23:29.858Z,4.60
2024-05-09T12:26:04.012Z,4.50
2024-05-09T12:28:37.585Z,5.80
2024-05-09T12:31:11.076Z,5.90
2024-05-09T12:33:45.124Z,7.50
2024-05-09T12:36:18.972Z,4.60
2024-05-09T12:38:51.852Z,5.20
2024-05-09T12:41:27.575Z,5.60
2024-05-09T12:44:00.868Z,4.90
2024-05-09T12:46:34.530Z,6.40
2024-05-09T12:49:09.395Z,4.30
2024-05-09T12:51:43.900Z,6.70
2024-05-09T12:54:17.830Z,5.40
2024-05-09T12:56:50.895Z,5.00
2024-05-09T12:59:23.772Z,5.00
2024-05-09T13:02:00.432Z,6.50
2024-05-09T13:04:34.158Z,4.70
2024-05-09T13:07:09.655Z,4.60
2024-05-09T13:09:42.279Z,3.90
2024-05-09T13:12:15.354Z,5.60
2024-05-09T13:14:54.478Z,2.90
2024-05-09T13:17:27.682Z,4.70
2024-05-09T13:20:01.263Z,7.00
2024-05-09T13:22:35.587Z,3.60
2024-05-09T13:25:10.165Z,4.90
2024-05-09T13:27:43.180Z,3.70
2024-05-09T13:30:25.830Z,4.90
2024-05-09T13:33:02.767Z,4.60
2024-05-09T13:35:36.477Z,7.30
2024-05-09T13:38:10.143Z,5.70
2024-05-09T13:40:45.346Z,12.10
2024-05-09T13:43:18.959Z,6.50
2024-05-09T13:45:51.805Z,3.40
2024-05-09T13:48:24.653Z,4.60
2024-05-09T13:51:00.222Z,4.30
2024-05-09T13:53:33.174Z,3.10
2024-05-09T13:56:08.556Z,2.80
2024-05-09T13:58:44.546Z,3.90
2024-05-09T14:01:17.463Z,3.60
2024-05-09T14:03:53.046Z,3.10
2024-05-09T14:06:26.990Z,3.00
2024-05-09T14:08:59.277Z,3.00
2024-05-09T14:11:31.793Z,3.00
2024-05-09T14:14:06.395Z,5.10
2024-05-09T14:16:39.446Z,6.00
2024-05-09T14:19:12.552Z,5.70
2024-05-09T14:21:45.773Z,4.30
2024-05-09T14:24:18.048Z,4.50
2024-05-09T14:26:52.864Z,3.50
2024-05-09T14:29:27.612Z,4.30
2024-05-09T14:32:01.449Z,5.00
2024-05-09T14:34:35.325Z,4.30
2024-05-09T14:37:09.142Z,4.00
2024-05-09T14:39:43.788Z,4.30
2024-05-09T14:42:16.539Z,5.20
2024-05-09T14:44:49.288Z,4.00
2024-05-09T14:47:24.168Z,3.80
2024-05-09T14:49:57.494Z,5.00
2024-05-09T14:52:31.454Z,5.50
2024-05-09T14:55:04.152Z,4.60
2024-05-09T14:57:37.875Z,4.10
2024-05-09T15:00:21.352Z,2.50
2024-05-09T15:03:01.051Z,3.20
2024-05-09T15:05:33.822Z,4.60
2024-05-09T15:08:12.508Z,4.20
2024-05-09T15:10:46.105Z,7.90
2024-05-09T15:13:20.999Z,4.80
2024-05-09T15:15:56.647Z,3.30
2024-05-09T15:18:29.559Z,3.40
2024-05-09T15:21:04.483Z,3.30
2024-05-09T15:23:39.829Z,2.40
2024-05-09T15:26:13.747Z,3.30
2024-05-09T15:28:48.271Z,3.10
2024-05-09T15:31:21.210Z,4.30
2024-05-09T15:33:53.101Z,3.90
2024-05-09T15:36:25.778Z,3.80
2024-05-09T15:38:59.532Z,3.50
2024-05-09T15:41:34.320Z,3.00
2024-05-09T15:44:08.784Z,3.30
2024-05-09T15:46:42.099Z,2.80
2024-05-09T15:49:15.822Z,3.90
2024-05-09T15:51:49.011Z,5.20
2024-05-09T15:54:22.939Z,4.00
2024-05-09T15:56:58.973Z,2.60
2024-05-09T15:59:31.762Z,4.00
2024-05-09T16:02:11.535Z,4.00
2024-05-09T16:04:47.549Z,4.60
2024-05-09T16:07:22.917Z,4.70
2024-05-09T16:09:56.903Z,4.60
2024-05-09T16:12:33.171Z,5.10
2024-05-09T16:15:06.673Z,4.30
2024-05-09T16:17:38.798Z,3.50
2024-05-09T16:20:18.323Z,3.30
2024-05-09T16:22:59.773Z,3.00
2024-05-09T16:25:34.998Z,2.70
2024-05-09T16:28:11.190Z,3.90
2024-05-09T16:30:46.954Z,3.60
2024-05-09T16:33:23.705Z,3.00
2024-05-09T16:35:56.653Z,3.10
2024-05-09T16:38:31.455Z,4.00
2024-05-09T16:41:03.685Z,4.20
2024-05-09T16:43:37.828Z,8.40
2024-05-09T16:46:11.041Z,9.90
2024-05-09T16:48:45.719Z,6.80
2024-05-09T16:51:20.778Z,3.10
2024-05-09T16:53:54.175Z,5.60
2024-05-09T16:56:28.716Z,4.60
2024-05-09T16:59:04.118Z,5.20
2024-05-09T17:01:36.939Z,4.10
2024-05-09T17:04:09.787Z,3.90
2024-05-09T17:06:44.901Z,3.70
2024-05-09T17:09:20.137Z,2.60
2024-05-09T17:11:54.681Z,4.10
2024-05-09T17:14:28.715Z,8.70
2024-05-09T17:17:03.502Z,3.50
2024-05-09T17:19:42.304Z,4.20
2024-05-09T17:22:15.326Z,4.90
2024-05-09T17:24:49.651Z,3.10
2024-05-09T17:27:29.825Z,3.60
2024-05-09T17:30:06.046Z,3.70
2024-05-09T17:32:39.715Z,4.50
2024-05-09T17:35:13.160Z,2.70
2024-05-09T17:37:45.856Z,4.00
2024-05-09T17:40:30.018Z,3.20
2024-05-09T17:43:06.962Z,6.40
2024-05-09T17:45:43.332Z,4.30
2024-05-09T17:48:16.598Z,2.90
2024-05-09T17:50:51.351Z,6.30
2024-05-09T17:53:24.190Z,4.00
2024-05-09T17:55:56.939Z,5.10
2024-05-09T17:58:28.832Z,3.50
2024-05-09T18:01:02.911Z,3.40
2024-05-09T18:03:35.415Z,4.00
2024-05-09T18:06:09.164Z,8.00
2024-05-09T18:08:42.686Z,9.60
2024-05-09T18:11:17.512Z,6.10
2024-05-09T18:13:50.719Z,6.50
2024-05-09T18:16:26.508Z,6.80
2024-05-09T18:19:00.606Z,7.00
2024-05-09T18:21:33.821Z,4.70
2024-05-09T18:24:10.070Z,6.90
2024-05-09T18:26:44.184Z,8.80
2024-05-09T18:29:21.750Z,7.20
2024-05-09T18:31:56.354Z,8.90
2024-05-09T18:34:29.593Z,7.80
2024-05-09T18:37:04.415Z,7.80
2024-05-09T18:39:37.629Z,8.70
2024-05-09T18:42:24.010Z,10.20
2024-05-09T18:44:55.030Z,9.30
2024-05-09T18:47:28.287Z,12.80
2024-05-09T18:50:02.153Z,10.80
2024-05-09T18:52:35.776Z,10.30
2024-05-09T18:55:08.715Z,12.00
2024-05-09T18:57:42.389Z,9.80
2024-05-09T19:00:30.775Z,10.70
2024-05-09T19:03:11.074Z,11.10
2024-05-09T19:05:47.400Z,11.20
2024-05-09T19:08:21.817Z,9.50
2024-05-09T19:10:54.894Z,8.90
2024-05-09T19:13:29.155Z,10.00
2024-05-09T19:16:02.933Z,13.90
2024-05-09T19:18:36.721Z,12.00
2024-05-09T19:21:10.393Z,12.80
2024-05-09T19:23:47.269Z,11.00
2024-05-09T19:26:25.213Z,9.30
2024-05-09T19:28:58.253Z,10.30
2024-05-09T19:31:29.945Z,9.40
2024-05-09T19:34:04.354Z,8.40
2024-05-09T19:36:39.179Z,8.60
2024-05-09T19:39:11.922Z,11.90
2024-05-09T19:41:43.958Z,9.60
2024-05-09T19:44:15.979Z,8.50
2024-05-09T19:46:49.059Z,8.60
2024-05-09T19:49:22.359Z,8.50
2024-05-09T19:51:55.322Z,9.10
2024-05-09T19:54:27.645Z,7.50
2024-05-09T19:57:00.508Z,9.90
2024-05-09T19:59:33.616Z,7.00
2024-05-09T20:02:09.166Z,8.60
2024-05-09T20:04:44.847Z,6.50
2024-05-09T20:07:20.728Z,8.20
2024-05-09T20:09:55.492Z,10.40
2024-05-09T20:12:29.316Z,8.90
2024-05-09T20:15:02.521Z,9.10
2024-05-09T20:17:35.237Z,6.50
2024-05-09T20:20:16.754Z,8.30
2024-05-09T20:22:57.011Z,8.10
2024-05-09T20:25:29.831Z,8.00
2024-05-09T20:28:01.923Z,7.30
2024-05-09T20:30:39.686Z,10.40
2024-05-09T20:33:14.356Z,6.10
2024-05-09T20:35:46.722Z,8.60
2024-05-09T20:38:18.519Z,7.50
2024-05-09T20:40:51.708Z,9.00
2024-05-09T20:43:24.148Z,8.30
2024-05-09T20:45:57.756Z,8.10
2024-05-09T20:48:30.531Z,10.00
2024-05-09T20:51:05.200Z,10.40
2024-05-09T20:53:37.380Z,8.30
2024-05-09T20:56:11.872Z,8.20
2024-05-09T20:58:44.920Z,10.40
2024-05-09T21:01:18.211Z,9.70
2024-05-09T21:03:52.693Z,12.60
2024-05-09T21:06:25.515Z,11.00
2024-05-09T21:08:58.451Z,9.80
2024-05-09T21:11:31.870Z,8.30
2024-05-09T21:14:04.794Z,9.50
2024-05-09T21:16:38.806Z,10.80
2024-05-09T21:19:12.688Z,12.40
2024-05-09T21:21:46.015Z,12.80
2024-05-09T21:24:19.205Z,10.00
2024-05-09T21:26:51.356Z,10.90
2024-05-09T21:29:23.950Z,15.50
2024-05-09T21:31:57.351Z,9.70
2024-05-09T21:34:30.305Z,14.00
2024-05-09T21:37:03.178Z,10.80
2024-05-09T21:39:36.070Z,10.70
2024-05-09T21:42:11.926Z,9.80
2024-05-09T21:44:44.328Z,11.60
2024-05-09T21:47:17.102Z,9.40
2024-05-09T21:49:49.375Z,10.20
2024-05-09T21:52:22.710Z,11.40
2024-05-09T21:54:58.103Z,8.60
2024-05-09T21:57:30.047Z,9.30
2024-05-09T22:00:03.267Z,11.00
2024-05-09T22:02:37.612Z,11.10
2024-05-09T22:05:13.551Z,12.20
2024-05-09T22:07:47.452Z,10.70
2024-05-09T22:10:26.273Z,9.20
2024-05-09T22:13:05.112Z,13.70
2024-05-09T22:15:41.380Z,13.40
2024-05-09T22:18:14.142Z,12.60
2024-05-09T22:20:47.086Z,12.80
2024-05-09T22:23:21.620Z,11.00
2024-05-09T22:25:55.993Z,11.40
2024-05-09T22:28:28.376Z,11.10
2024-05-09T22:31:02.593Z,9.90
2024-05-09T22:33:35.535Z,10.70
2024-05-09T22:36:09.708Z,9.50
2024-05-09T22:38:43.880Z,8.90
2024-05-09T22:41:16.301Z,12.00
2024-05-09T22:43:51.340Z,9.90
2024-05-09T22:46:25.942Z,10.50
2024-05-09T22:48:59.241Z,11.20
2024-05-09T22:51:33.714Z,9.10
2024-05-09T22:54:07.594Z,9.00
2024-05-09T22:56:43.647Z,11.60
2024-05-09T22:59:17.391Z,8.60
2024-05-09T23:01:50.450Z,11.10
2024-05-09T23:04:26.381Z,11.40
2024-05-09T23:06:58.495Z,10.30
2024-05-09T23:09:31.797Z,11.90
2024-05-09T23:12:05.845Z,10.40
2024-05-09T23:14:39.925Z,9.00
2024-05-09T23:17:13.557Z,9.10
2024-05-09T23:19:51.245Z,11.50
2024-05-09T23:22:25.288Z,10.10
2024-05-09T23:25:02.157Z,12.60
2024-05-09T23:27:34.574Z,11.80
2024-05-09T23:30:12.523Z,10.10
2024-05-09T23:32:48.180Z,9.00
2024-05-09T23:35:21.934Z,14.40
2024-05-09T23:37:55.488Z,11.20
2024-05-09T23:40:37.779Z,14.50
2024-05-09T23:43:16.569Z,11.90
2024-05-09T23:45:50.689Z,12.90
2024-05-09T23:48:23.934Z,11.10
2024-05-09T23:50:56.252Z,11.90
2024-05-09T23:53:29.260Z,12.70
2024-05-09T23:56:02.451Z,14.00
2024-05-09T23:58:34.934Z,13.80
